Item Display Status Serial CT Sensor

Mooring Depth: 1 m

 

Deployed Sensor

  • Serial Number: 12489
  • NDBC Property Number: 38947
  • Start Date: 10/28/2016 (13:31:42 Z)
  • End Date: Currently Active
Water Temperature [°C]     6 entries per hour
Showing data from 2/21/2018 (05:00:00 Z) to 2/20/2018 (00:00:01 Z)
Previous Next [ Day | 3-Days | 7-Days ]
First Last
Prev [ Day | 3-Days | 7-Days ] Next
First Last

Start Time:     :
End Time:     :     
Time (in GMT) :00 :50 :40 :30 :20 :10
Previous Next [ Day | 3-Days | 7-Days ]
First Last
Prev [ Day | 3-Days | 7-Days ] Next
First Last


123 => good data
MM => data is determined as missing
-- => data not received/configured
Back to Top Back to Top
2/21/2018 05:00 to 4:10 27.324 27.443 27.466 27.488 27.453 27.434
2/21/2018 04:00 to 3:10 27.280 27.274 27.076 27.062 27.130 27.517
2/21/2018 03:00 to 2:10 27.208 27.249 27.095 26.728 26.956 27.077
2/21/2018 02:00 to 1:10 26.964 26.700 26.593 26.678 26.545 26.742
2/21/2018 01:00 to 0:10 26.512 26.535 26.564 26.399 26.460 26.467
2/21/2018 00:00 to 23:10 26.983 26.544 27.585 26.993 27.190 26.524
2/20/2018 23:00 to 22:10 27.047 26.808 26.760 26.570 26.530 27.255
2/20/2018 22:00 to 21:10 26.442 26.498 26.593 26.562 26.386 26.529
2/20/2018 21:00 to 20:10 26.165 26.158 26.089 26.060 26.053 26.253
2/20/2018 20:00 to 19:10 25.908 25.899 25.776 25.706 25.685 25.975
2/20/2018 19:00 to 18:10 25.646 25.586 25.579 25.539 25.543 25.618
2/20/2018 18:00 to 17:10 25.506 25.479 25.470 25.456 25.450 25.531
2/20/2018 17:00 to 16:10 25.417 25.411 25.398 25.390 25.383 25.434
2/20/2018 16:00 to 15:10 25.369 25.359 25.355 25.353 25.350 25.378
2/20/2018 15:00 to 14:10 25.337 25.334 25.340 25.338 25.345 25.344
2/20/2018 14:00 to 13:10 25.354 25.352 25.354 25.353 25.352 25.349
2/20/2018 13:00 to 12:10 25.355 25.354 25.354 25.355 25.351 25.357
2/20/2018 12:00 to 11:10 25.356 25.363 25.367 25.367 25.372 25.353
2/20/2018 11:00 to 10:10 25.389 25.390 25.397 25.409 25.417 25.382
2/20/2018 10:00 to 9:10 25.429 25.441 25.446 25.447 25.456 25.424
2/20/2018 09:00 to 8:10 25.481 25.491 25.486 25.490 25.498 25.473
2/20/2018 08:00 to 7:10 25.491 25.480 25.477 25.478 25.479 25.495
2/20/2018 07:00 to 6:10 25.470 25.466 25.474 25.483 25.494 25.478
2/20/2018 06:00 to 5:10 25.505 25.507 25.516 25.525 25.545 25.501
2/20/2018 05:00 to 4:10 25.582 25.585 25.581 25.581 25.588 25.557
2/20/2018 04:00 to 3:10 25.591 25.603 25.612 25.606 25.627 25.576
2/20/2018 03:00 to 2:10 25.643 25.634 25.642 25.632 25.630 25.635
2/20/2018 02:00 to 1:10 25.649 25.674 25.677 25.682 25.699 25.626
2/20/2018 01:00 to 0:10 25.684 25.724 25.748 25.770 25.798 25.692

 

 

 

Conductivity [S/m]     6 entries per hour
Showing data from 2/21/2018 (05:00:00 Z) to 2/20/2018 (00:00:01 Z)
Previous Next [ Day | 3-Days | 7-Days ]
First Last
Prev [ Day | 3-Days | 7-Days ] Next
First Last

Start Time:     :
End Time:     :     
Time (in GMT) :00 :50 :40 :30 :20 :10
Previous Next [ Day | 3-Days | 7-Days ]
First Last
Prev [ Day | 3-Days | 7-Days ] Next
First Last


123 => good data
MM => data is determined as missing
-- => data not received/configured
Back to Top Back to Top
2/21/2018 05:00 to 4:10 5.63125 5.63544 5.64245 5.64944 5.64752 5.64305
2/21/2018 04:00 to 3:10 5.62017 5.61698 5.63022 5.60325 5.60123 5.64254
2/21/2018 03:00 to 2:10 5.64185 5.63841 5.60553 5.56417 5.59927 5.62400
2/21/2018 02:00 to 1:10 5.58901 5.55469 5.54286 5.57084 5.54570 5.57576
2/21/2018 01:00 to 0:10 5.54990 5.56712 5.54763 5.52093 5.50969 5.55033
2/21/2018 00:00 to 23:10 5.66344 5.53310 5.67736 5.60697 5.58565 5.60623
2/20/2018 23:00 to 22:10 5.61858 5.61618 5.59447 5.58593 5.58036 5.64415
2/20/2018 22:00 to 21:10 5.56402 5.53352 5.56688 5.55679 5.53656 5.54467
2/20/2018 21:00 to 20:10 5.52305 5.52246 5.50894 5.50531 5.49870 5.52903
2/20/2018 20:00 to 19:10 5.48129 5.48065 5.47002 5.45317 5.46362 5.49842
2/20/2018 19:00 to 18:10 5.45599 5.44249 5.44025 5.43533 5.43619 5.44092
2/20/2018 18:00 to 17:10 5.43360 5.42939 5.42788 5.42738 5.42619 5.43531
2/20/2018 17:00 to 16:10 5.42287 5.42286 5.42158 5.41993 5.41903 5.42599
2/20/2018 16:00 to 15:10 5.41794 5.41698 5.41638 5.41613 5.41558 5.41864
2/20/2018 15:00 to 14:10 5.41454 5.41416 5.41388 5.41418 5.41486 5.41466
2/20/2018 14:00 to 13:10 5.41499 5.41610 5.41631 5.41563 5.41640 5.41561
2/20/2018 13:00 to 12:10 5.41564 5.41665 5.41547 5.41649 5.41658 5.41630
2/20/2018 12:00 to 11:10 5.41624 5.41738 5.41777 5.41830 5.41890 5.41619
2/20/2018 11:00 to 10:10 5.42054 5.42020 5.42187 5.42244 5.42347 5.41951
2/20/2018 10:00 to 9:10 5.42589 5.42705 5.42791 5.42820 5.42789 5.42496
2/20/2018 09:00 to 8:10 5.43043 5.43242 5.43206 5.43095 5.43317 5.43045
2/20/2018 08:00 to 7:10 5.43207 5.43111 5.42849 5.42978 5.42782 5.43412
2/20/2018 07:00 to 6:10 5.42779 5.42660 5.42767 5.42878 5.42974 5.42823
2/20/2018 06:00 to 5:10 5.43121 5.43074 5.43160 5.43180 5.43504 5.43004
2/20/2018 05:00 to 4:10 5.43795 5.43998 5.44012 5.43719 5.43796 5.43571
2/20/2018 04:00 to 3:10 5.43844 5.43909 5.44116 5.43924 5.44146 5.43762
2/20/2018 03:00 to 2:10 5.44363 5.44150 5.44111 5.43986 5.44023 5.44221
2/20/2018 02:00 to 1:10 5.44112 5.44316 5.44290 5.44427 5.44684 5.43829
2/20/2018 01:00 to 0:10 5.44552 5.44747 5.45088 5.45182 5.45711 5.44695

 

 

 

Salinity [psu]     6 entries per hour
Showing data from 2/21/2018 (05:00:00 Z) to 2/20/2018 (00:00:01 Z)
Previous Next [ Day | 3-Days | 7-Days ]
First Last
Prev [ Day | 3-Days | 7-Days ] Next
First Last

Start Time:     :
End Time:     :     
Time (in GMT) :00 :50 :40 :30 :20 :10
Previous Next [ Day | 3-Days | 7-Days ]
First Last
Prev [ Day | 3-Days | 7-Days ] Next
First Last


123 => good data
MM => data is determined as missing
-- => data not received/configured
Back to Top Back to Top
2/21/2018 05:00 to 4:10 35.57 35.51 35.54 35.57 35.59 35.57
2/21/2018 04:00 to 3:10 35.52 35.51 35.75 35.57 35.50 35.50
2/21/2018 03:00 to 2:10 35.73 35.68 35.56 35.54 35.62 35.71
2/21/2018 02:00 to 1:10 35.54 35.50 35.50 35.63 35.55 35.62
2/21/2018 01:00 to 0:10 35.61 35.71 35.55 35.49 35.36 35.65
2/21/2018 00:00 to 23:10 36.06 35.46 35.70 35.65 35.35 36.01
2/20/2018 23:00 to 22:10 35.69 35.86 35.74 35.82 35.81 35.71
2/20/2018 22:00 to 21:10 35.76 35.50 35.67 35.62 35.61 35.56
2/20/2018 21:00 to 20:10 35.68 35.68 35.64 35.63 35.59 35.66
2/20/2018 20:00 to 19:10 35.58 35.58 35.60 35.53 35.62 35.65
2/20/2018 19:00 to 18:10 35.60 35.54 35.53 35.53 35.53 35.51
2/20/2018 18:00 to 17:10 35.54 35.53 35.53 35.53 35.53 35.53
2/20/2018 17:00 to 16:10 35.53 35.54 35.54 35.53 35.53 35.54
2/20/2018 16:00 to 15:10 35.53 35.53 35.53 35.53 35.53 35.53
2/20/2018 15:00 to 14:10 35.53 35.53 35.53 35.53 35.53 35.53
2/20/2018 14:00 to 13:10 35.52 35.53 35.53 35.53 35.53 35.53
2/20/2018 13:00 to 12:10 35.53 35.54 35.53 35.53 35.54 35.53
2/20/2018 12:00 to 11:10 35.53 35.53 35.53 35.54 35.54 35.53
2/20/2018 11:00 to 10:10 35.54 35.53 35.54 35.53 35.54 35.53
2/20/2018 10:00 to 9:10 35.54 35.54 35.55 35.55 35.54 35.54
2/20/2018 09:00 to 8:10 35.54 35.54 35.55 35.53 35.54 35.54
2/20/2018 08:00 to 7:10 35.54 35.54 35.53 35.53 35.52 35.55
2/20/2018 07:00 to 6:10 35.53 35.52 35.52 35.52 35.52 35.52
2/20/2018 06:00 to 5:10 35.52 35.52 35.52 35.51 35.52 35.52
2/20/2018 05:00 to 4:10 35.51 35.53 35.53 35.51 35.51 35.52
2/20/2018 04:00 to 3:10 35.51 35.51 35.51 35.50 35.50 35.52
2/20/2018 03:00 to 2:10 35.51 35.50 35.49 35.49 35.49 35.50
2/20/2018 02:00 to 1:10 35.48 35.48 35.48 35.48 35.49 35.48
2/20/2018 01:00 to 0:10 35.49 35.47 35.48 35.47 35.49 35.49